sensor_id;sensor_type;location;lat;lon;timestamp;P1;durP1;ratioP1;P2;durP2;ratioP2
20511;SDS011;10414;52.074;5.126;2023-02-03T00:02:18;8.38;;;2.28;;
20511;SDS011;10414;52.074;5.126;2023-02-03T00:04:47;14.05;;;2.67;;
20511;SDS011;10414;52.074;5.126;2023-02-03T00:07:13;12.82;;;2.17;;
20511;SDS011;10414;52.074;5.126;2023-02-03T00:09:41;14.02;;;2.85;;
20511;SDS011;10414;52.074;5.126;2023-02-03T00:12:08;8.82;;;2.30;;
20511;SDS011;10414;52.074;5.126;2023-02-03T00:14:35;13.73;;;2.65;;
20511;SDS011;10414;52.074;5.126;2023-02-03T00:17:03;11.27;;;2.40;;
20511;SDS011;10414;52.074;5.126;2023-02-03T00:19:30;12.32;;;2.47;;
20511;SDS011;10414;52.074;5.126;2023-02-03T00:21:58;10.32;;;2.10;;
20511;SDS011;10414;52.074;5.126;2023-02-03T00:24:25;11.68;;;2.20;;
20511;SDS011;10414;52.074;5.126;2023-02-03T00:26:52;12.07;;;2.35;;
20511;SDS011;10414;52.074;5.126;2023-02-03T00:29:19;8.43;;;2.00;;
20511;SDS011;10414;52.074;5.126;2023-02-03T00:34:17;13.00;;;2.30;;
20511;SDS011;10414;52.074;5.126;2023-02-03T00:36:43;10.38;;;2.20;;
20511;SDS011;10414;52.074;5.126;2023-02-03T00:39:13;9.90;;;2.30;;
20511;SDS011;10414;52.074;5.126;2023-02-03T00:41:40;12.73;;;2.60;;
20511;SDS011;10414;52.074;5.126;2023-02-03T00:44:07;8.98;;;2.10;;
20511;SDS011;10414;52.074;5.126;2023-02-03T00:46:34;11.63;;;2.60;;
20511;SDS011;10414;52.074;5.126;2023-02-03T00:49:02;9.63;;;2.90;;
20511;SDS011;10414;52.074;5.126;2023-02-03T00:51:29;12.00;;;2.40;;
20511;SDS011;10414;52.074;5.126;2023-02-03T00:53:56;9.20;;;1.77;;
20511;SDS011;10414;52.074;5.126;2023-02-03T00:56:24;10.10;;;2.20;;
20511;SDS011;10414;52.074;5.126;2023-02-03T00:58:51;10.73;;;2.30;;
20511;SDS011;10414;52.074;5.126;2023-02-03T01:01:18;13.88;;;2.65;;
20511;SDS011;10414;52.074;5.126;2023-02-03T01:03:45;12.82;;;2.22;;
20511;SDS011;10414;52.074;5.126;2023-02-03T01:06:13;12.02;;;2.58;;
20511;SDS011;10414;52.074;5.126;2023-02-03T01:08:41;11.73;;;2.13;;
20511;SDS011;10414;52.074;5.126;2023-02-03T01:11:09;10.27;;;2.30;;
20511;SDS011;10414;52.074;5.126;2023-02-03T01:13:38;9.20;;;2.38;;
20511;SDS011;10414;52.074;5.126;2023-02-03T01:16:06;11.68;;;1.98;;
20511;SDS011;10414;52.074;5.126;2023-02-03T01:18:34;8.15;;;1.85;;
20511;SDS011;10414;52.074;5.126;2023-02-03T01:21:04;12.48;;;2.20;;
20511;SDS011;10414;52.074;5.126;2023-02-03T01:23:32;12.60;;;2.25;;
20511;SDS011;10414;52.074;5.126;2023-02-03T01:26:01;10.70;;;2.38;;
20511;SDS011;10414;52.074;5.126;2023-02-03T01:28:29;8.02;;;2.10;;
20511;SDS011;10414;52.074;5.126;2023-02-03T01:31:00;10.57;;;2.00;;
20511;SDS011;10414;52.074;5.126;2023-02-03T01:33:34;11.98;;;2.10;;
20511;SDS011;10414;52.074;5.126;2023-02-03T01:36:04;12.90;;;2.00;;
20511;SDS011;10414;52.074;5.126;2023-02-03T01:38:32;8.27;;;2.00;;
20511;SDS011;10414;52.074;5.126;2023-02-03T01:40:59;9.65;;;1.70;;
20511;SDS011;10414;52.074;5.126;2023-02-03T01:43:27;10.95;;;2.00;;
20511;SDS011;10414;52.074;5.126;2023-02-03T01:45:55;15.00;;;2.25;;
20511;SDS011;10414;52.074;5.126;2023-02-03T01:48:23;10.00;;;2.15;;
20511;SDS011;10414;52.074;5.126;2023-02-03T01:50:50;9.82;;;1.50;;
20511;SDS011;10414;52.074;5.126;2023-02-03T01:53:17;10.63;;;1.85;;
20511;SDS011;10414;52.074;5.126;2023-02-03T01:55:45;6.90;;;1.60;;
20511;SDS011;10414;52.074;5.126;2023-02-03T02:00:45;8.85;;;2.10;;
20511;SDS011;10414;52.074;5.126;2023-02-03T02:03:13;13.27;;;2.08;;
20511;SDS011;10414;52.074;5.126;2023-02-03T02:05:42;11.98;;;2.22;;
20511;SDS011;10414;52.074;5.126;2023-02-03T02:08:13;12.60;;;1.80;;
20511;SDS011;10414;52.074;5.126;2023-02-03T02:10:42;6.35;;;2.10;;
20511;SDS011;10414;52.074;5.126;2023-02-03T02:13:10;9.13;;;1.80;;
20511;SDS011;10414;52.074;5.126;2023-02-03T02:15:41;10.82;;;2.10;;
20511;SDS011;10414;52.074;5.126;2023-02-03T02:18:23;5.72;;;1.67;;
20511;SDS011;10414;52.074;5.126;2023-02-03T02:21:07;11.50;;;1.80;;
20511;SDS011;10414;52.074;5.126;2023-02-03T02:23:53;7.50;;;1.80;;
20511;SDS011;10414;52.074;5.126;2023-02-03T02:26:49;8.65;;;1.70;;
20511;SDS011;10414;52.074;5.126;2023-02-03T02:32:35;10.43;;;1.50;;
20511;SDS011;10414;52.074;5.126;2023-02-03T02:35:14;9.63;;;1.60;;
20511;SDS011;10414;52.074;5.126;2023-02-03T02:37:49;14.07;;;1.70;;
20511;SDS011;10414;52.074;5.126;2023-02-03T02:40:21;9.95;;;1.63;;
20511;SDS011;10414;52.074;5.126;2023-02-03T02:42:58;6.65;;;1.67;;
20511;SDS011;10414;52.074;5.126;2023-02-03T02:45:29;6.72;;;1.60;;
20511;SDS011;10414;52.074;5.126;2023-02-03T02:48:01;8.32;;;1.50;;
20511;SDS011;10414;52.074;5.126;2023-02-03T02:50:33;5.75;;;1.45;;
20511;SDS011;10414;52.074;5.126;2023-02-03T02:53:05;8.80;;;1.67;;
20511;SDS011;10414;52.074;5.126;2023-02-03T02:55:33;10.68;;;1.70;;
20511;SDS011;10414;52.074;5.126;2023-02-03T02:58:04;9.57;;;1.83;;
20511;SDS011;10414;52.074;5.126;2023-02-03T03:00:35;6.95;;;1.40;;
20511;SDS011;10414;52.074;5.126;2023-02-03T03:03:13;14.95;;;1.80;;
20511;SDS011;10414;52.074;5.126;2023-02-03T03:05:41;7.00;;;1.67;;
20511;SDS011;10414;52.074;5.126;2023-02-03T03:08:11;13.07;;;1.52;;
20511;SDS011;10414;52.074;5.126;2023-02-03T03:10:41;6.38;;;1.70;;
20511;SDS011;10414;52.074;5.126;2023-02-03T03:13:10;8.43;;;1.85;;
20511;SDS011;10414;52.074;5.126;2023-02-03T03:15:40;10.82;;;1.73;;
20511;SDS011;10414;52.074;5.126;2023-02-03T03:18:10;10.63;;;1.90;;
20511;SDS011;10414;52.074;5.126;2023-02-03T03:20:44;9.52;;;2.15;;
20511;SDS011;10414;52.074;5.126;2023-02-03T03:23:18;9.75;;;1.63;;
20511;SDS011;10414;52.074;5.126;2023-02-03T03:25:48;8.98;;;1.63;;
20511;SDS011;10414;52.074;5.126;2023-02-03T03:28:23;6.20;;;1.50;;
20511;SDS011;10414;52.074;5.126;2023-02-03T03:30:55;16.08;;;1.90;;
20511;SDS011;10414;52.074;5.126;2023-02-03T03:33:24;8.82;;;1.73;;
20511;SDS011;10414;52.074;5.126;2023-02-03T03:35:52;4.80;;;1.60;;
20511;SDS011;10414;52.074;5.126;2023-02-03T03:38:25;8.18;;;1.58;;
20511;SDS011;10414;52.074;5.126;2023-02-03T03:41:02;9.73;;;1.95;;
20511;SDS011;10414;52.074;5.126;2023-02-03T03:46:01;13.10;;;1.95;;
20511;SDS011;10414;52.074;5.126;2023-02-03T03:48:35;7.60;;;1.60;;
20511;SDS011;10414;52.074;5.126;2023-02-03T03:51:07;13.93;;;2.05;;
20511;SDS011;10414;52.074;5.126;2023-02-03T03:53:38;10.82;;;1.60;;
20511;SDS011;10414;52.074;5.126;2023-02-03T03:56:08;9.23;;;1.90;;
20511;SDS011;10414;52.074;5.126;2023-02-03T03:58:41;9.70;;;1.67;;
20511;SDS011;10414;52.074;5.126;2023-02-03T04:01:10;6.72;;;2.15;;
20511;SDS011;10414;52.074;5.126;2023-02-03T04:03:43;9.60;;;1.88;;
20511;SDS011;10414;52.074;5.126;2023-02-03T04:06:11;7.43;;;1.60;;
20511;SDS011;10414;52.074;5.126;2023-02-03T04:08:38;9.35;;;1.73;;
20511;SDS011;10414;52.074;5.126;2023-02-03T04:11:06;8.10;;;1.23;;
20511;SDS011;10414;52.074;5.126;2023-02-03T04:13:33;7.05;;;1.35;;
20511;SDS011;10414;52.074;5.126;2023-02-03T04:16:00;6.80;;;1.40;;
20511;SDS011;10414;52.074;5.126;2023-02-03T04:18:27;5.85;;;1.33;;
20511;SDS011;10414;52.074;5.126;2023-02-03T04:20:55;5.95;;;1.20;;
20511;SDS011;10414;52.074;5.126;2023-02-03T04:23:22;9.95;;;1.50;;
20511;SDS011;10414;52.074;5.126;2023-02-03T04:25:49;6.05;;;1.30;;
20511;SDS011;10414;52.074;5.126;2023-02-03T04:28:15;9.25;;;1.48;;
20511;SDS011;10414;52.074;5.126;2023-02-03T04:30:42;8.77;;;1.42;;
20511;SDS011;10414;52.074;5.126;2023-02-03T04:33:09;5.28;;;1.20;;
20511;SDS011;10414;52.074;5.126;2023-02-03T04:35:36;9.05;;;1.30;;
20511;SDS011;10414;52.074;5.126;2023-02-03T04:38:04;9.98;;;1.58;;
20511;SDS011;10414;52.074;5.126;2023-02-03T04:40:31;6.13;;;1.65;;
20511;SDS011;10414;52.074;5.126;2023-02-03T04:42:58;8.95;;;1.10;;
20511;SDS011;10414;52.074;5.126;2023-02-03T04:45:32;7.13;;;1.30;;
20511;SDS011;10414;52.074;5.126;2023-02-03T04:47:58;5.78;;;1.45;;
20511;SDS011;10414;52.074;5.126;2023-02-03T04:50:25;8.07;;;1.65;;
20511;SDS011;10414;52.074;5.126;2023-02-03T04:52:52;10.25;;;1.38;;
20511;SDS011;10414;52.074;5.126;2023-02-03T04:55:20;4.93;;;1.30;;
20511;SDS011;10414;52.074;5.126;2023-02-03T04:57:47;7.38;;;1.35;;
20511;SDS011;10414;52.074;5.126;2023-02-03T05:00:14;6.10;;;1.55;;
20511;SDS011;10414;52.074;5.126;2023-02-03T05:02:41;6.10;;;1.40;;
20511;SDS011;10414;52.074;5.126;2023-02-03T05:05:08;7.05;;;1.40;;
20511;SDS011;10414;52.074;5.126;2023-02-03T05:07:35;8.75;;;1.20;;
20511;SDS011;10414;52.074;5.126;2023-02-03T05:10:02;6.32;;;1.27;;
20511;SDS011;10414;52.074;5.126;2023-02-03T05:12:31;8.52;;;1.45;;
20511;SDS011;10414;52.074;5.126;2023-02-03T05:14:58;8.02;;;1.25;;
20511;SDS011;10414;52.074;5.126;2023-02-03T05:17:25;11.23;;;1.42;;
20511;SDS011;10414;52.074;5.126;2023-02-03T05:19:51;6.72;;;1.15;;
20511;SDS011;10414;52.074;5.126;2023-02-03T05:22:18;9.25;;;1.58;;
20511;SDS011;10414;52.074;5.126;2023-02-03T05:24:45;6.80;;;1.15;;
20511;SDS011;10414;52.074;5.126;2023-02-03T05:27:12;7.15;;;1.20;;
20511;SDS011;10414;52.074;5.126;2023-02-03T05:29:40;5.93;;;1.10;;
20511;SDS011;10414;52.074;5.126;2023-02-03T05:32:07;6.20;;;1.10;;
20511;SDS011;10414;52.074;5.126;2023-02-03T05:34:34;9.52;;;1.10;;
20511;SDS011;10414;52.074;5.126;2023-02-03T05:37:01;7.25;;;1.10;;
20511;SDS011;10414;52.074;5.126;2023-02-03T05:39:28;7.45;;;1.10;;
20511;SDS011;10414;52.074;5.126;2023-02-03T05:41:55;7.07;;;1.05;;
20511;SDS011;10414;52.074;5.126;2023-02-03T05:44:21;10.13;;;1.45;;
20511;SDS011;10414;52.074;5.126;2023-02-03T05:46:51;7.55;;;1.15;;
20511;SDS011;10414;52.074;5.126;2023-02-03T05:49:19;7.78;;;1.20;;
20511;SDS011;10414;52.074;5.126;2023-02-03T05:51:47;8.65;;;1.38;;
20511;SDS011;10414;52.074;5.126;2023-02-03T05:54:14;7.85;;;1.27;;
20511;SDS011;10414;52.074;5.126;2023-02-03T05:56:41;7.53;;;1.20;;
20511;SDS011;10414;52.074;5.126;2023-02-03T05:59:08;8.13;;;1.73;;
20511;SDS011;10414;52.074;5.126;2023-02-03T06:01:35;10.65;;;1.77;;
20511;SDS011;10414;52.074;5.126;2023-02-03T06:04:04;5.18;;;0.98;;
20511;SDS011;10414;52.074;5.126;2023-02-03T06:06:31;12.23;;;1.40;;
20511;SDS011;10414;52.074;5.126;2023-02-03T06:08:58;6.50;;;1.30;;
20511;SDS011;10414;52.074;5.126;2023-02-03T06:11:26;9.70;;;1.50;;
20511;SDS011;10414;52.074;5.126;2023-02-03T06:13:53;9.40;;;1.45;;
20511;SDS011;10414;52.074;5.126;2023-02-03T06:16:22;7.10;;;1.42;;
20511;SDS011;10414;52.074;5.126;2023-02-03T06:18:50;8.32;;;1.38;;
20511;SDS011;10414;52.074;5.126;2023-02-03T06:21:19;7.10;;;1.05;;
20511;SDS011;10414;52.074;5.126;2023-02-03T06:23:47;8.10;;;1.30;;
20511;SDS011;10414;52.074;5.126;2023-02-03T06:26:14;5.13;;;0.98;;
20511;SDS011;10414;52.074;5.126;2023-02-03T06:28:40;7.22;;;1.23;;
20511;SDS011;10414;52.074;5.126;2023-02-03T06:31:07;7.80;;;1.23;;
20511;SDS011;10414;52.074;5.126;2023-02-03T06:33:34;6.00;;;1.45;;
20511;SDS011;10414;52.074;5.126;2023-02-03T06:36:01;14.90;;;3.63;;
20511;SDS011;10414;52.074;5.126;2023-02-03T06:38:30;9.07;;;1.63;;
20511;SDS011;10414;52.074;5.126;2023-02-03T06:40:56;9.68;;;1.58;;
20511;SDS011;10414;52.074;5.126;2023-02-03T06:43:23;8.13;;;1.60;;
20511;SDS011;10414;52.074;5.126;2023-02-03T06:45:50;9.65;;;1.40;;
20511;SDS011;10414;52.074;5.126;2023-02-03T06:48:17;6.00;;;1.67;;
20511;SDS011;10414;52.074;5.126;2023-02-03T06:50:44;11.85;;;2.20;;
20511;SDS011;10414;52.074;5.126;2023-02-03T06:53:11;11.75;;;1.58;;
20511;SDS011;10414;52.074;5.126;2023-02-03T06:55:40;10.82;;;1.60;;
20511;SDS011;10414;52.074;5.126;2023-02-03T06:58:06;7.70;;;1.70;;
20511;SDS011;10414;52.074;5.126;2023-02-03T07:00:33;10.10;;;1.92;;
20511;SDS011;10414;52.074;5.126;2023-02-03T07:03:00;8.18;;;1.73;;
20511;SDS011;10414;52.074;5.126;2023-02-03T07:05:28;10.70;;;1.60;;
20511;SDS011;10414;52.074;5.126;2023-02-03T07:07:55;12.32;;;1.90;;
20511;SDS011;10414;52.074;5.126;2023-02-03T07:10:23;9.52;;;1.65;;
20511;SDS011;10414;52.074;5.126;2023-02-03T07:12:51;11.82;;;1.83;;
20511;SDS011;10414;52.074;5.126;2023-02-03T07:15:18;8.82;;;1.42;;
20511;SDS011;10414;52.074;5.126;2023-02-03T07:17:46;7.80;;;1.55;;
20511;SDS011;10414;52.074;5.126;2023-02-03T07:20:18;10.35;;;1.90;;
20511;SDS011;10414;52.074;5.126;2023-02-03T07:22:50;5.90;;;1.50;;
20511;SDS011;10414;52.074;5.126;2023-02-03T07:25:17;11.40;;;1.58;;
20511;SDS011;10414;52.074;5.126;2023-02-03T07:27:44;14.30;;;1.70;;
20511;SDS011;10414;52.074;5.126;2023-02-03T07:30:13;7.93;;;1.73;;
20511;SDS011;10414;52.074;5.126;2023-02-03T07:32:40;8.25;;;1.33;;
20511;SDS011;10414;52.074;5.126;2023-02-03T07:35:11;14.38;;;2.45;;
20511;SDS011;10414;52.074;5.126;2023-02-03T07:37:38;7.03;;;1.50;;
20511;SDS011;10414;52.074;5.126;2023-02-03T07:40:05;8.43;;;1.95;;
20511;SDS011;10414;52.074;5.126;2023-02-03T07:42:32;9.75;;;1.83;;
20511;SDS011;10414;52.074;5.126;2023-02-03T07:44:59;7.35;;;1.50;;
20511;SDS011;10414;52.074;5.126;2023-02-03T07:47:27;10.85;;;1.70;;
20511;SDS011;10414;52.074;5.126;2023-02-03T07:49:54;11.90;;;1.90;;
20511;SDS011;10414;52.074;5.126;2023-02-03T07:52:21;9.68;;;2.00;;
20511;SDS011;10414;52.074;5.126;2023-02-03T07:54:47;17.90;;;2.03;;
20511;SDS011;10414;52.074;5.126;2023-02-03T07:57:14;8.80;;;1.88;;
20511;SDS011;10414;52.074;5.126;2023-02-03T07:59:41;7.60;;;1.50;;
20511;SDS011;10414;52.074;5.126;2023-02-03T08:02:08;11.15;;;1.77;;
20511;SDS011;10414;52.074;5.126;2023-02-03T08:04:36;10.70;;;2.30;;
20511;SDS011;10414;52.074;5.126;2023-02-03T08:07:03;10.65;;;1.50;;
20511;SDS011;10414;52.074;5.126;2023-02-03T08:09:30;10.23;;;1.60;;
20511;SDS011;10414;52.074;5.126;2023-02-03T08:11:57;10.77;;;1.65;;
20511;SDS011;10414;52.074;5.126;2023-02-03T08:14:24;11.23;;;2.58;;
20511;SDS011;10414;52.074;5.126;2023-02-03T08:16:51;11.27;;;2.13;;
20511;SDS011;10414;52.074;5.126;2023-02-03T08:19:18;12.38;;;2.00;;
20511;SDS011;10414;52.074;5.126;2023-02-03T08:21:46;12.23;;;2.20;;
20511;SDS011;10414;52.074;5.126;2023-02-03T08:24:13;11.43;;;2.13;;
20511;SDS011;10414;52.074;5.126;2023-02-03T08:26:40;8.80;;;2.05;;
20511;SDS011;10414;52.074;5.126;2023-02-03T08:29:07;11.48;;;2.08;;
20511;SDS011;10414;52.074;5.126;2023-02-03T08:31:35;8.48;;;1.63;;
20511;SDS011;10414;52.074;5.126;2023-02-03T08:34:03;9.23;;;1.80;;
20511;SDS011;10414;52.074;5.126;2023-02-03T08:36:30;12.77;;;2.17;;
20511;SDS011;10414;52.074;5.126;2023-02-03T08:38:58;10.50;;;2.15;;
20511;SDS011;10414;52.074;5.126;2023-02-03T08:41:25;11.23;;;1.90;;
20511;SDS011;10414;52.074;5.126;2023-02-03T08:43:52;9.75;;;1.95;;
20511;SDS011;10414;52.074;5.126;2023-02-03T08:46:19;7.45;;;1.70;;
20511;SDS011;10414;52.074;5.126;2023-02-03T08:48:46;10.48;;;1.98;;
20511;SDS011;10414;52.074;5.126;2023-02-03T08:51:14;10.70;;;1.75;;
20511;SDS011;10414;52.074;5.126;2023-02-03T08:53:42;9.18;;;1.70;;
20511;SDS011;10414;52.074;5.126;2023-02-03T08:56:11;10.52;;;1.70;;
20511;SDS011;10414;52.074;5.126;2023-02-03T08:58:38;11.27;;;2.08;;
20511;SDS011;10414;52.074;5.126;2023-02-03T09:01:06;5.97;;;1.50;;
20511;SDS011;10414;52.074;5.126;2023-02-03T09:03:33;6.35;;;1.70;;
20511;SDS011;10414;52.074;5.126;2023-02-03T09:06:01;9.30;;;1.50;;
20511;SDS011;10414;52.074;5.126;2023-02-03T09:08:28;11.65;;;1.92;;
20511;SDS011;10414;52.074;5.126;2023-02-03T09:10:54;12.25;;;1.75;;
20511;SDS011;10414;52.074;5.126;2023-02-03T09:13:23;11.35;;;1.98;;
20511;SDS011;10414;52.074;5.126;2023-02-03T09:15:50;7.00;;;1.48;;
20511;SDS011;10414;52.074;5.126;2023-02-03T09:18:17;9.15;;;1.92;;
20511;SDS011;10414;52.074;5.126;2023-02-03T09:20:44;13.18;;;1.85;;
20511;SDS011;10414;52.074;5.126;2023-02-03T09:23:11;11.40;;;2.03;;
20511;SDS011;10414;52.074;5.126;2023-02-03T09:25:38;12.80;;;2.47;;
20511;SDS011;10414;52.074;5.126;2023-02-03T09:28:05;10.98;;;2.55;;
20511;SDS011;10414;52.074;5.126;2023-02-03T09:30:33;13.75;;;2.38;;
20511;SDS011;10414;52.074;5.126;2023-02-03T09:33:00;16.08;;;2.95;;
20511;SDS011;10414;52.074;5.126;2023-02-03T09:35:27;10.38;;;1.67;;
20511;SDS011;10414;52.074;5.126;2023-02-03T09:37:54;12.98;;;1.80;;
20511;SDS011;10414;52.074;5.126;2023-02-03T09:40:22;11.23;;;1.60;;
20511;SDS011;10414;52.074;5.126;2023-02-03T09:42:58;10.80;;;1.75;;
20511;SDS011;10414;52.074;5.126;2023-02-03T09:45:33;11.23;;;1.65;;
20511;SDS011;10414;52.074;5.126;2023-02-03T09:48:02;10.98;;;1.75;;
20511;SDS011;10414;52.074;5.126;2023-02-03T09:50:34;14.93;;;2.00;;
20511;SDS011;10414;52.074;5.126;2023-02-03T09:53:05;8.88;;;1.33;;
20511;SDS011;10414;52.074;5.126;2023-02-03T09:55:45;10.90;;;2.08;;
20511;SDS011;10414;52.074;5.126;2023-02-03T09:58:14;9.07;;;1.95;;
20511;SDS011;10414;52.074;5.126;2023-02-03T10:00:45;9.43;;;1.98;;
20511;SDS011;10414;52.074;5.126;2023-02-03T10:03:18;10.25;;;1.65;;
20511;SDS011;10414;52.074;5.126;2023-02-03T10:05:56;11.05;;;1.90;;
20511;SDS011;10414;52.074;5.126;2023-02-03T10:08:41;10.23;;;1.60;;
20511;SDS011;10414;52.074;5.126;2023-02-03T10:11:36;6.78;;;1.42;;
20511;SDS011;10414;52.074;5.126;2023-02-03T10:14:20;7.23;;;1.57;;
20511;SDS011;10414;52.074;5.126;2023-02-03T10:17:01;9.77;;;1.55;;
20511;SDS011;10414;52.074;5.126;2023-02-03T10:19:37;8.52;;;1.70;;
20511;SDS011;10414;52.074;5.126;2023-02-03T10:22:10;8.50;;;1.73;;
20511;SDS011;10414;52.074;5.126;2023-02-03T10:24:42;8.95;;;1.73;;
20511;SDS011;10414;52.074;5.126;2023-02-03T10:27:14;9.82;;;1.88;;
20511;SDS011;10414;52.074;5.126;2023-02-03T10:29:43;9.57;;;1.45;;
20511;SDS011;10414;52.074;5.126;2023-02-03T10:32:11;6.63;;;1.48;;
20511;SDS011;10414;52.074;5.126;2023-02-03T10:34:38;10.07;;;1.80;;
20511;SDS011;10414;52.074;5.126;2023-02-03T10:37:10;7.90;;;1.58;;
20511;SDS011;10414;52.074;5.126;2023-02-03T10:39:43;12.13;;;2.00;;
20511;SDS011;10414;52.074;5.126;2023-02-03T10:42:12;11.27;;;1.50;;
20511;SDS011;10414;52.074;5.126;2023-02-03T10:44:40;11.77;;;2.10;;
20511;SDS011;10414;52.074;5.126;2023-02-03T10:47:14;10.38;;;1.98;;
20511;SDS011;10414;52.074;5.126;2023-02-03T10:49:48;9.50;;;2.63;;
20511;SDS011;10414;52.074;5.126;2023-02-03T10:52:23;7.85;;;1.58;;
20511;SDS011;10414;52.074;5.126;2023-02-03T10:54:53;6.47;;;1.75;;
20511;SDS011;10414;52.074;5.126;2023-02-03T10:57:20;6.22;;;1.30;;
20511;SDS011;10414;52.074;5.126;2023-02-03T10:59:48;6.95;;;1.52;;
20511;SDS011;10414;52.074;5.126;2023-02-03T11:02:22;8.63;;;2.13;;
20511;SDS011;10414;52.074;5.126;2023-02-03T11:05:07;9.32;;;1.70;;
20511;SDS011;10414;52.074;5.126;2023-02-03T11:07:36;5.95;;;1.33;;
20511;SDS011;10414;52.074;5.126;2023-02-03T11:10:03;6.20;;;1.48;;
20511;SDS011;10414;52.074;5.126;2023-02-03T11:13:07;7.70;;;1.63;;
20511;SDS011;10414;52.074;5.126;2023-02-03T11:15:37;7.88;;;2.22;;
20511;SDS011;10414;52.074;5.126;2023-02-03T11:21:07;8.68;;;1.90;;
20511;SDS011;10414;52.074;5.126;2023-02-03T11:23:35;10.95;;;2.05;;
20511;SDS011;10414;52.074;5.126;2023-02-03T11:26:08;7.22;;;1.70;;
20511;SDS011;10414;52.074;5.126;2023-02-03T11:31:12;8.40;;;1.83;;
20511;SDS011;10414;52.074;5.126;2023-02-03T11:33:46;7.32;;;2.00;;
20511;SDS011;10414;52.074;5.126;2023-02-03T11:36:16;8.02;;;2.13;;
20511;SDS011;10414;52.074;5.126;2023-02-03T11:38:44;7.75;;;1.73;;
20511;SDS011;10414;52.074;5.126;2023-02-03T11:41:14;7.55;;;1.88;;
20511;SDS011;10414;52.074;5.126;2023-02-03T11:43:42;7.00;;;1.88;;
20511;SDS011;10414;52.074;5.126;2023-02-03T11:46:10;8.98;;;2.17;;
20511;SDS011;10414;52.074;5.126;2023-02-03T11:48:41;12.65;;;1.88;;
20511;SDS011;10414;52.074;5.126;2023-02-03T11:51:23;12.43;;;2.55;;
20511;SDS011;10414;52.074;5.126;2023-02-03T11:54:00;6.05;;;1.65;;
20511;SDS011;10414;52.074;5.126;2023-02-03T11:56:34;7.50;;;1.80;;
20511;SDS011;10414;52.074;5.126;2023-02-03T11:59:32;10.23;;;2.05;;
20511;SDS011;10414;52.074;5.126;2023-02-03T12:02:30;8.30;;;1.48;;
20511;SDS011;10414;52.074;5.126;2023-02-03T12:05:35;9.55;;;2.00;;
20511;SDS011;10414;52.074;5.126;2023-02-03T12:08:23;9.50;;;1.90;;
20511;SDS011;10414;52.074;5.126;2023-02-03T12:11:04;9.93;;;1.98;;
20511;SDS011;10414;52.074;5.126;2023-02-03T12:16:38;8.65;;;1.67;;
20511;SDS011;10414;52.074;5.126;2023-02-03T12:21:54;9.18;;;1.90;;
20511;SDS011;10414;52.074;5.126;2023-02-03T12:24:29;10.25;;;1.63;;
20511;SDS011;10414;52.074;5.126;2023-02-03T12:27:07;6.88;;;1.80;;
20511;SDS011;10414;52.074;5.126;2023-02-03T12:29:48;7.07;;;1.90;;
20511;SDS011;10414;52.074;5.126;2023-02-03T12:32:21;8.27;;;1.77;;
20511;SDS011;10414;52.074;5.126;2023-02-03T12:34:54;5.70;;;1.60;;
20511;SDS011;10414;52.074;5.126;2023-02-03T12:37:26;11.27;;;2.17;;
20511;SDS011;10414;52.074;5.126;2023-02-03T12:39:59;8.60;;;2.83;;
20511;SDS011;10414;52.074;5.126;2023-02-03T12:42:30;9.00;;;2.38;;
20511;SDS011;10414;52.074;5.126;2023-02-03T12:45:02;8.50;;;1.98;;
20511;SDS011;10414;52.074;5.126;2023-02-03T12:47:36;8.10;;;2.20;;
20511;SDS011;10414;52.074;5.126;2023-02-03T12:50:12;10.98;;;1.95;;
20511;SDS011;10414;52.074;5.126;2023-02-03T12:52:46;12.55;;;2.40;;
20511;SDS011;10414;52.074;5.126;2023-02-03T12:55:19;8.90;;;2.03;;
20511;SDS011;10414;52.074;5.126;2023-02-03T12:57:53;7.95;;;2.30;;
20511;SDS011;10414;52.074;5.126;2023-02-03T13:00:28;9.85;;;2.78;;
20511;SDS011;10414;52.074;5.126;2023-02-03T13:03:05;13.50;;;2.33;;
20511;SDS011;10414;52.074;5.126;2023-02-03T13:05:40;9.07;;;1.92;;
20511;SDS011;10414;52.074;5.126;2023-02-03T13:08:16;8.75;;;2.20;;
20511;SDS011;10414;52.074;5.126;2023-02-03T13:10:49;9.38;;;2.45;;
20511;SDS011;10414;52.074;5.126;2023-02-03T13:13:22;10.73;;;2.40;;
20511;SDS011;10414;52.074;5.126;2023-02-03T13:15:56;12.63;;;2.60;;
20511;SDS011;10414;52.074;5.126;2023-02-03T13:18:25;9.25;;;1.80;;
20511;SDS011;10414;52.074;5.126;2023-02-03T13:20:55;12.25;;;2.35;;
20511;SDS011;10414;52.074;5.126;2023-02-03T13:23:23;12.85;;;2.70;;
20511;SDS011;10414;52.074;5.126;2023-02-03T13:26:02;11.35;;;2.30;;
20511;SDS011;10414;52.074;5.126;2023-02-03T13:28:46;9.75;;;2.20;;
20511;SDS011;10414;52.074;5.126;2023-02-03T13:31:32;11.43;;;2.08;;
20511;SDS011;10414;52.074;5.126;2023-02-03T13:34:10;12.68;;;2.50;;
20511;SDS011;10414;52.074;5.126;2023-02-03T13:37:02;16.80;;;2.85;;
20511;SDS011;10414;52.074;5.126;2023-02-03T13:39:44;13.40;;;2.17;;
20511;SDS011;10414;52.074;5.126;2023-02-03T13:42:20;9.30;;;2.15;;
20511;SDS011;10414;52.074;5.126;2023-02-03T13:44:52;9.38;;;2.20;;
20511;SDS011;10414;52.074;5.126;2023-02-03T13:47:23;9.43;;;2.20;;
20511;SDS011;10414;52.074;5.126;2023-02-03T13:49:54;10.15;;;2.45;;
20511;SDS011;10414;52.074;5.126;2023-02-03T13:52:26;11.95;;;2.42;;
20511;SDS011;10414;52.074;5.126;2023-02-03T13:54:57;10.35;;;1.77;;
20511;SDS011;10414;52.074;5.126;2023-02-03T13:57:27;12.30;;;2.30;;
20511;SDS011;10414;52.074;5.126;2023-02-03T13:59:59;10.60;;;2.00;;
20511;SDS011;10414;52.074;5.126;2023-02-03T14:02:28;11.77;;;2.33;;
20511;SDS011;10414;52.074;5.126;2023-02-03T14:05:06;13.57;;;2.53;;
20511;SDS011;10414;52.074;5.126;2023-02-03T14:07:49;14.43;;;2.70;;
20511;SDS011;10414;52.074;5.126;2023-02-03T14:10:20;15.75;;;2.38;;
20511;SDS011;10414;52.074;5.126;2023-02-03T14:12:56;11.25;;;2.30;;
20511;SDS011;10414;52.074;5.126;2023-02-03T14:15:31;11.40;;;2.40;;
20511;SDS011;10414;52.074;5.126;2023-02-03T14:18:04;14.63;;;2.50;;
20511;SDS011;10414;52.074;5.126;2023-02-03T14:20:50;17.30;;;3.03;;
20511;SDS011;10414;52.074;5.126;2023-02-03T14:26:28;13.43;;;2.35;;
20511;SDS011;10414;52.074;5.126;2023-02-03T14:29:02;16.20;;;2.35;;
20511;SDS011;10414;52.074;5.126;2023-02-03T14:31:31;17.33;;;2.70;;
20511;SDS011;10414;52.074;5.126;2023-02-03T14:34:19;13.25;;;2.00;;
20511;SDS011;10414;52.074;5.126;2023-02-03T14:36:55;19.85;;;2.58;;
20511;SDS011;10414;52.074;5.126;2023-02-03T14:39:30;18.42;;;2.22;;
20511;SDS011;10414;52.074;5.126;2023-02-03T14:42:33;9.80;;;2.35;;
20511;SDS011;10414;52.074;5.126;2023-02-03T14:48:10;15.82;;;2.53;;
20511;SDS011;10414;52.074;5.126;2023-02-03T14:50:52;11.18;;;2.25;;
20511;SDS011;10414;52.074;5.126;2023-02-03T14:53:33;17.67;;;2.30;;
20511;SDS011;10414;52.074;5.126;2023-02-03T14:56:10;15.25;;;2.15;;
20511;SDS011;10414;52.074;5.126;2023-02-03T14:58:44;20.52;;;2.97;;
20511;SDS011;10414;52.074;5.126;2023-02-03T15:01:25;19.83;;;3.10;;
20511;SDS011;10414;52.074;5.126;2023-02-03T15:04:19;13.02;;;2.08;;
20511;SDS011;10414;52.074;5.126;2023-02-03T15:06:49;20.25;;;3.53;;
20511;SDS011;10414;52.074;5.126;2023-02-03T15:09:19;14.70;;;3.00;;
20511;SDS011;10414;52.074;5.126;2023-02-03T15:11:53;15.73;;;2.83;;
20511;SDS011;10414;52.074;5.126;2023-02-03T15:14:23;16.73;;;3.40;;
20511;SDS011;10414;52.074;5.126;2023-02-03T15:19:23;16.50;;;2.45;;
20511;SDS011;10414;52.074;5.126;2023-02-03T15:21:52;21.05;;;2.97;;
20511;SDS011;10414;52.074;5.126;2023-02-03T15:24:20;17.05;;;2.67;;
20511;SDS011;10414;52.074;5.126;2023-02-03T15:26:50;14.13;;;2.85;;
20511;SDS011;10414;52.074;5.126;2023-02-03T15:29:26;21.13;;;2.65;;
20511;SDS011;10414;52.074;5.126;2023-02-03T15:31:57;16.00;;;2.33;;
20511;SDS011;10414;52.074;5.126;2023-02-03T15:34:33;19.15;;;3.20;;